Time;durP1;ratioP1;P1;durP2;ratioP2;P2;SDS_P1;SDS_P2;PMS_P1;PMS_P2;Temp;Humidity;BMP_temperature;BMP_pressure;BME280_temperature;BME280_humidity;BME280_pressure;Samples;Min_cycle;Max_cycle;Signal;HPM_P1;HPM_P2
2023/09/02 00:00:04;;;;;;;111.70;3.23;;;20.60;49.00;;;;;;5014925;28;20176;-72
2023/09/02 00:02:31;;;;;;;111.87;3.33;;;20.80;48.50;;;;;;5014582;28;20213;-72
2023/09/02 00:04:57;;;;;;;112.60;3.70;;;20.90;47.40;;;;;;5014360;28;20420;-72
2023/09/02 00:07:22;;;;;;;112.37;3.80;;;20.90;47.80;;;;;;5014304;28;20450;-72
2023/09/02 00:09:48;;;;;;;111.77;3.10;;;21.00;47.70;;;;;;5014714;28;20175;-72
2023/09/02 00:12:13;;;;;;;111.60;3.20;;;20.80;47.60;;;;;;5014720;28;20183;-72
2023/09/02 00:14:39;;;;;;;111.70;3.30;;;20.70;48.30;;;;;;5013741;28;20176;-72
2023/09/02 00:17:04;;;;;;;111.87;3.37;;;20.70;48.30;;;;;;5015604;28;20265;-72
2023/09/02 00:19:30;;;;;;;111.97;3.37;;;20.80;48.00;;;;;;5017862;28;20180;-72
2023/09/02 00:21:56;;;;;;;115.50;3.60;;;20.90;47.80;;;;;;5014357;28;20207;-72
2023/09/02 00:24:21;;;;;;;111.97;3.40;;;20.70;48.10;;;;;;5014244;28;20636;-72
2023/09/02 00:26:47;;;;;;;111.63;3.13;;;20.70;47.90;;;;;;5014090;28;20290;-72
2023/09/02 00:29:12;;;;;;;111.70;3.20;;;20.60;49.10;;;;;;5014225;28;20177;-72
2023/09/02 00:31:38;;;;;;;111.60;3.20;;;20.50;48.30;;;;;;5014317;28;20176;-72
2023/09/02 00:34:03;;;;;;;112.70;4.10;;;20.40;48.50;;;;;;5014053;28;20238;-72
2023/09/02 00:36:30;;;;;;;111.77;3.33;;;20.50;48.70;;;;;;5013719;28;20719;-72
2023/09/02 00:38:59;;;;;;;111.77;3.20;;;20.70;48.30;;;;;;4996314;28;20178;-72
2023/09/02 00:41:57;;;;;;;112.07;3.40;;;20.50;49.00;;;;;;5014020;28;20454;-72
2023/09/02 00:44:23;;;;;;;111.90;3.30;;;20.60;48.00;;;;;;4953128;29;20945;-72
2023/09/02 00:46:49;;;;;;;111.90;3.40;;;20.60;48.70;;;;;;4952800;28;20471;-72
2023/09/02 00:49:14;;;;;;;111.77;3.27;;;20.40;48.80;;;;;;4952807;28;20914;-72
2023/09/02 00:51:40;;;;;;;112.00;3.50;;;20.50;49.10;;;;;;4953296;28;20183;-72
2023/09/02 00:54:06;;;;;;;112.10;3.60;;;20.60;47.50;;;;;;4952988;29;20202;-72
2023/09/02 00:56:32;;;;;;;111.30;2.80;;;20.70;47.30;;;;;;4952975;28;20723;-71
2023/09/02 00:59:03;;;;;;;111.60;3.20;;;20.50;47.90;;;;;;4953014;29;20181;-72
2023/09/02 01:01:31;;;;;;;111.77;3.20;;;20.50;48.70;;;;;;4952925;28;21034;-72
2023/09/02 01:03:57;;;;;;;111.50;2.90;;;20.30;48.40;;;;;;4952885;29;20433;-72
2023/09/02 01:06:23;;;;;;;112.50;3.83;;;20.50;49.20;;;;;;4952684;28;20452;-72
2023/09/02 01:08:49;;;;;;;111.40;3.10;;;20.40;50.20;;;;;;4952773;28;20414;-72
2023/09/02 01:11:15;;;;;;;112.13;3.57;;;20.30;49.40;;;;;;4953025;29;20190;-72
2023/09/02 01:13:40;;;;;;;111.57;2.97;;;20.30;48.60;;;;;;4952658;29;20825;-72
2023/09/02 01:16:06;;;;;;;111.37;2.93;;;20.20;49.00;;;;;;4952392;28;20224;-72
2023/09/02 01:18:33;;;;;;;111.73;3.40;;;20.30;48.60;;;;;;4950105;28;20686;-72
2023/09/02 01:21:20;;;;;;;111.43;2.87;;;20.20;48.70;;;;;;5049684;23;20705;-80
2023/09/02 01:24:10;;;;;;;111.77;3.27;;;20.20;48.60;;;;;;5038902;28;20847;-80
2023/09/02 01:27:12;;;;;;;111.70;3.10;;;20.10;49.00;;;;;;5016921;28;20482;-80
2023/09/02 01:30:05;;;;;;;112.20;3.60;;;20.20;49.30;;;;;;5013395;28;20425;-77
2023/09/02 01:32:38;;;;;;;111.30;2.93;;;20.10;49.00;;;;;;5013122;28;20408;-76
2023/09/02 01:35:06;;;;;;;111.83;3.20;;;20.20;48.40;;;;;;5024864;28;20562;-77
2023/09/02 01:37:42;;;;;;;113.77;3.93;;;20.10;48.60;;;;;;5032785;28;20422;-77
2023/09/02 01:40:11;;;;;;;111.97;3.30;;;20.00;48.40;;;;;;5032588;28;20511;-77
2023/09/02 01:42:37;;;;;;;112.40;3.80;;;19.90;48.80;;;;;;5032444;28;20460;-77
2023/09/02 01:45:03;;;;;;;112.17;3.33;;;20.10;49.00;;;;;;5032211;28;20408;-77
2023/09/02 01:47:29;;;;;;;111.90;3.30;;;19.90;48.60;;;;;;5032546;28;20408;-76
2023/09/02 01:49:55;;;;;;;112.17;3.50;;;19.90;48.60;;;;;;5032110;28;20436;-76
2023/09/02 01:52:21;;;;;;;111.90;3.13;;;19.80;49.30;;;;;;5032388;28;20169;-77
2023/09/02 01:54:47;;;;;;;111.97;3.40;;;19.80;48.90;;;;;;5031873;28;20412;-76
2023/09/02 01:57:13;;;;;;;111.77;3.00;;;19.80;48.60;;;;;;5032414;28;20226;-77
2023/09/02 01:59:38;;;;;;;112.90;3.73;;;19.90;48.30;;;;;;5032137;28;20200;-77
2023/09/02 02:02:04;;;;;;;112.27;3.40;;;20.10;47.80;;;;;;5032224;28;20451;-78
2023/09/02 02:04:37;;;;;;;112.57;3.40;;;20.00;48.00;;;;;;5032068;28;20177;-77
2023/09/02 02:07:16;;;;;;;111.87;3.10;;;19.90;48.00;;;;;;5032463;28;20192;-77
2023/09/02 02:09:48;;;;;;;111.97;3.23;;;19.90;48.80;;;;;;5032015;28;20427;-76
2023/09/02 02:12:14;;;;;;;112.50;3.43;;;20.00;48.20;;;;;;5032146;28;20419;-77
2023/09/02 02:14:40;;;;;;;111.77;3.17;;;19.90;47.70;;;;;;5031807;28;20407;-77
2023/09/02 02:17:06;;;;;;;112.07;3.40;;;19.70;49.10;;;;;;5031825;28;20759;-77
2023/09/02 02:19:33;;;;;;;112.07;3.33;;;19.80;49.00;;;;;;5031517;28;20215;-77
2023/09/02 02:21:58;;;;;;;112.17;3.30;;;19.70;49.50;;;;;;5031761;28;20447;-78
2023/09/02 02:24:25;;;;;;;112.27;3.37;;;19.70;48.20;;;;;;5032700;28;20427;-77
2023/09/02 02:26:50;;;;;;;112.47;3.43;;;19.70;48.50;;;;;;5031303;28;20168;-77
2023/09/02 02:29:16;;;;;;;112.70;3.60;;;19.70;48.00;;;;;;5031771;28;20411;-77
2023/09/02 02:31:41;;;;;;;112.70;3.00;;;19.80;48.50;;;;;;5031417;28;20177;-77
2023/09/02 02:34:07;;;;;;;112.00;3.10;;;19.80;49.10;;;;;;5032091;28;20164;-77
2023/09/02 02:36:33;;;;;;;112.10;3.27;;;19.80;49.20;;;;;;5031233;28;20251;-77
2023/09/02 02:38:58;;;;;;;111.90;3.10;;;19.50;48.90;;;;;;5031628;28;20181;-77
2023/09/02 02:41:24;;;;;;;111.80;2.90;;;19.60;49.10;;;;;;5031247;28;20196;-77
2023/09/02 02:43:50;;;;;;;112.00;3.10;;;19.90;49.80;;;;;;5031661;28;20184;-77
2023/09/02 02:46:15;;;;;;;112.47;3.57;;;19.60;50.10;;;;;;5031277;28;20172;-77
2023/09/02 02:48:41;;;;;;;113.20;3.57;;;19.80;49.20;;;;;;5031560;28;20802;-77
2023/09/02 02:51:07;;;;;;;113.20;3.87;;;19.80;47.90;;;;;;5030928;28;20254;-77
2023/09/02 02:53:34;;;;;;;194.80;4.43;;;19.70;49.20;;;;;;5031816;28;20183;-77
2023/09/02 02:56:02;;;;;;;112.40;3.37;;;19.40;48.70;;;;;;5031039;28;20581;-77
2023/09/02 02:58:28;;;;;;;112.13;3.00;;;19.60;49.50;;;;;;5030377;28;20853;-77
2023/09/02 03:01:02;;;;;;;113.27;3.67;;;19.50;49.30;;;;;;5031330;28;20522;-77
2023/09/02 03:03:28;;;;;;;112.13;3.20;;;19.30;49.10;;;;;;5031297;28;20403;-77
2023/09/02 03:05:53;;;;;;;111.87;2.90;;;19.60;50.30;;;;;;5031101;28;20465;-77
2023/09/02 03:08:19;;;;;;;112.77;3.57;;;19.30;50.60;;;;;;5031146;28;20168;-78
2023/09/02 03:10:44;;;;;;;112.37;3.40;;;19.40;49.30;;;;;;5031168;28;20197;-77
2023/09/02 03:13:10;;;;;;;112.17;3.30;;;19.30;49.10;;;;;;5031245;28;20172;-78
2023/09/02 03:15:35;;;;;;;112.57;3.50;;;19.20;49.10;;;;;;5031816;28;20211;-77
2023/09/02 03:18:01;;;;;;;112.27;3.27;;;19.30;49.20;;;;;;5030978;28;20179;-76
2023/09/02 03:20:27;;;;;;;112.30;3.40;;;19.50;48.50;;;;;;5030778;28;20208;-77
2023/09/02 03:22:52;;;;;;;112.20;3.40;;;19.40;49.10;;;;;;5030895;28;20205;-77
2023/09/02 03:25:18;;;;;;;112.07;3.03;;;19.30;49.00;;;;;;5031063;28;20637;-77
2023/09/02 03:27:43;;;;;;;112.10;3.30;;;19.80;49.40;;;;;;5031105;28;20170;-78
2023/09/02 03:30:09;;;;;;;112.47;3.60;;;19.70;49.60;;;;;;5031136;28;20671;-78
2023/09/02 03:32:35;;;;;;;112.67;3.60;;;19.30;49.50;;;;;;5030864;28;20173;-78
2023/09/02 03:35:02;;;;;;;112.50;3.40;;;19.70;50.00;;;;;;5030855;28;20419;-78
2023/09/02 03:37:28;;;;;;;111.97;3.00;;;19.20;49.10;;;;;;5031047;28;20672;-78
2023/09/02 03:39:54;;;;;;;112.50;3.63;;;19.30;49.10;;;;;;5030731;28;20434;-77
2023/09/02 03:42:19;;;;;;;111.90;2.90;;;19.20;49.20;;;;;;5031015;28;20578;-78
2023/09/02 03:44:45;;;;;;;112.30;3.27;;;19.30;49.20;;;;;;5030638;28;20178;-78
2023/09/02 03:47:10;;;;;;;112.20;3.20;;;19.30;49.20;;;;;;5030915;28;20172;-78
2023/09/02 03:49:36;;;;;;;112.10;3.17;;;19.60;49.80;;;;;;5032405;28;20746;-78
2023/09/02 03:52:02;;;;;;;112.50;3.40;;;19.30;49.10;;;;;;5034491;28;20674;-77
2023/09/02 03:54:27;;;;;;;113.00;3.30;;;19.30;49.70;;;;;;5034271;28;20258;-78
2023/09/02 03:56:53;;;;;;;111.97;3.10;;;19.30;48.60;;;;;;5034251;28;20172;-78
2023/09/02 03:59:19;;;;;;;112.47;3.43;;;19.20;47.90;;;;;;5034483;28;20553;-78
2023/09/02 04:01:45;;;;;;;112.17;3.00;;;19.20;48.90;;;;;;5034308;28;20196;-78
2023/09/02 04:04:10;;;;;;;112.87;3.60;;;19.20;49.10;;;;;;5034115;28;20493;-78
2023/09/02 04:06:38;;;;;;;113.40;3.63;;;19.10;48.50;;;;;;5034017;28;20492;-78
2023/09/02 04:09:05;;;;;;;112.80;3.80;;;19.10;47.90;;;;;;5034499;28;20247;-77
2023/09/02 04:11:31;;;;;;;112.00;3.10;;;19.00;48.40;;;;;;5032916;28;20949;-78
2023/09/02 04:13:56;;;;;;;112.40;3.47;;;19.00;48.90;;;;;;5034120;28;20401;-77
2023/09/02 04:16:22;;;;;;;112.27;3.03;;;19.20;48.70;;;;;;5033694;28;20172;-76
2023/09/02 04:18:48;;;;;;;112.20;3.10;;;19.00;48.90;;;;;;5033939;28;20185;-78
2023/09/02 04:21:13;;;;;;;112.50;3.30;;;19.50;49.10;;;;;;5033333;28;20212;-78
2023/09/02 04:23:41;;;;;;;113.00;3.83;;;19.30;48.10;;;;;;5033784;28;20184;-78
2023/09/02 04:26:07;;;;;;;112.60;3.43;;;19.00;48.60;;;;;;5033558;28;20172;-78
2023/09/02 04:28:32;;;;;;;112.00;2.70;;;19.10;49.00;;;;;;5033853;28;20907;-78
2023/09/02 04:30:59;;;;;;;112.47;3.13;;;18.90;49.30;;;;;;5033513;28;20199;-78
2023/09/02 04:33:24;;;;;;;112.63;3.37;;;19.00;49.70;;;;;;5032500;28;20442;-78
2023/09/02 04:35:50;;;;;;;112.27;3.33;;;18.80;49.60;;;;;;5033278;28;20406;-78
2023/09/02 04:38:16;;;;;;;112.40;3.20;;;19.00;49.40;;;;;;5033676;28;20226;-78
2023/09/02 04:40:43;;;;;;;112.67;3.70;;;18.70;48.70;;;;;;5033347;28;20232;-78
2023/09/02 04:43:11;;;;;;;112.70;3.57;;;18.80;49.10;;;;;;5033486;28;20461;-77
2023/09/02 04:45:41;;;;;;;112.37;3.57;;;18.90;49.80;;;;;;5033098;28;20407;-77
2023/09/02 04:48:08;;;;;;;112.50;3.40;;;19.00;48.70;;;;;;5033434;28;20431;-78
2023/09/02 04:50:35;;;;;;;112.87;3.87;;;19.10;49.00;;;;;;5032811;28;20421;-78
2023/09/02 04:53:02;;;;;;;112.57;3.40;;;18.80;49.40;;;;;;5033404;28;20892;-78
2023/09/02 04:55:28;;;;;;;112.23;3.37;;;18.80;49.00;;;;;;5033076;28;20773;-78
2023/09/02 04:57:55;;;;;;;112.40;3.20;;;19.10;48.50;;;;;;5033604;28;20413;-78
2023/09/02 05:00:28;;;;;;;113.00;3.40;;;19.00;49.00;;;;;;5034101;28;20440;-78
2023/09/02 05:02:54;;;;;;;112.20;3.27;;;18.90;48.50;;;;;;5034676;28;20457;-76
2023/09/02 05:05:21;;;;;;;112.30;3.30;;;19.20;49.00;;;;;;5034631;28;20918;-76
2023/09/02 05:07:46;;;;;;;112.17;3.17;;;18.90;48.80;;;;;;5034279;28;20423;-76
2023/09/02 05:10:13;;;;;;;112.17;3.00;;;18.90;48.90;;;;;;5034694;28;20458;-77
2023/09/02 05:12:39;;;;;;;112.47;3.17;;;18.80;48.80;;;;;;5034866;28;20172;-78
2023/09/02 05:15:05;;;;;;;112.70;3.57;;;18.80;49.40;;;;;;5033334;28;20423;-77
2023/09/02 05:17:32;;;;;;;113.00;3.70;;;18.90;49.80;;;;;;5031808;28;20230;-79
2023/09/02 05:19:58;;;;;;;112.30;3.40;;;19.20;49.40;;;;;;5034220;28;20957;-78
2023/09/02 05:22:24;;;;;;;112.37;3.50;;;19.30;49.70;;;;;;5033226;28;20465;-79
2023/09/02 05:24:49;;;;;;;112.20;3.40;;;19.00;49.00;;;;;;5033734;28;20456;-77
2023/09/02 05:27:15;;;;;;;111.90;3.10;;;19.00;49.40;;;;;;5035931;28;20223;-77
2023/09/02 05:29:40;;;;;;;112.37;3.53;;;19.30;49.60;;;;;;5035604;28;20215;-77
2023/09/02 05:32:07;;;;;;;112.17;3.00;;;19.40;49.80;;;;;;5035241;28;20183;-76
2023/09/02 05:34:33;;;;;;;111.90;3.10;;;19.00;50.20;;;;;;5036120;28;20169;-77
2023/09/02 05:36:59;;;;;;;112.10;3.20;;;19.10;50.10;;;;;;5035539;28;20415;-77
2023/09/02 05:39:25;;;;;;;112.57;3.60;;;19.00;49.90;;;;;;5035238;28;20193;-77
2023/09/02 05:41:50;;;;;;;113.73;3.90;;;19.00;49.70;;;;;;5034618;28;20810;-77
2023/09/02 05:44:16;;;;;;;112.87;3.53;;;19.10;49.70;;;;;;5035273;28;20233;-77
2023/09/02 05:46:42;;;;;;;113.17;3.70;;;19.10;49.50;;;;;;5034923;28;20172;-77
2023/09/02 05:49:08;;;;;;;112.67;3.53;;;18.80;49.90;;;;;;5035103;28;20176;-78
2023/09/02 05:51:33;;;;;;;113.20;4.03;;;19.00;50.80;;;;;;5034823;28;20428;-77
2023/09/02 05:53:59;;;;;;;112.90;3.57;;;18.90;50.80;;;;;;5034844;28;20200;-77
2023/09/02 05:56:25;;;;;;;112.90;3.47;;;18.50;52.00;;;;;;5033638;28;20678;-77
2023/09/02 05:58:50;;;;;;;112.57;3.67;;;18.20;53.70;;;;;;5034407;28;20695;-76
2023/09/02 06:01:16;;;;;;;112.37;3.30;;;18.10;55.20;;;;;;5033846;28;20542;-77
2023/09/02 06:03:42;;;;;;;112.30;3.30;;;18.50;53.70;;;;;;5034634;28;20204;-77
2023/09/02 06:06:11;;;;;;;140.87;5.23;;;18.70;53.00;;;;;;5034994;28;20176;-77
2023/09/02 06:08:37;;;;;;;112.57;3.40;;;18.80;50.90;;;;;;5035016;28;20179;-76
2023/09/02 06:11:03;;;;;;;112.43;3.33;;;18.60;53.20;;;;;;5034366;28;20424;-77
2023/09/02 06:13:29;;;;;;;112.30;3.20;;;18.90;52.50;;;;;;5034774;28;20226;-77
2023/09/02 06:16:02;;;;;;;112.27;3.20;;;18.80;53.00;;;;;;5034950;28;20416;-79
2023/09/02 06:18:28;;;;;;;113.70;3.53;;;19.10;51.30;;;;;;5034928;28;20168;-77
2023/09/02 06:20:54;;;;;;;112.20;3.27;;;19.10;52.00;;;;;;5033864;28;20502;-77
2023/09/02 06:23:19;;;;;;;113.00;3.80;;;18.80;53.50;;;;;;5034006;28;20838;-76
2023/09/02 06:25:54;;;;;;;113.27;4.00;;;18.20;55.90;;;;;;5033564;28;20220;-77
2023/09/02 06:28:20;;;;;;;112.77;3.60;;;18.10;57.70;;;;;;5034010;28;20192;-77
2023/09/02 06:30:45;;;;;;;111.97;2.83;;;18.20;58.60;;;;;;5034362;28;20427;-78
2023/09/02 06:33:11;;;;;;;112.57;3.63;;;18.80;56.80;;;;;;5033012;28;20172;-78
2023/09/02 06:35:36;;;;;;;112.63;3.47;;;18.60;55.40;;;;;;5034157;28;20185;-78
2023/09/02 06:38:02;;;;;;;112.17;3.30;;;18.90;53.50;;;;;;5034498;28;20181;-77
2023/09/02 06:40:29;;;;;;;112.90;3.60;;;19.20;52.50;;;;;;5034148;28;20204;-77
2023/09/02 06:42:55;;;;;;;111.90;2.90;;;18.60;56.00;;;;;;5033874;28;20202;-77
2023/09/02 06:45:21;;;;;;;112.10;3.13;;;18.70;57.70;;;;;;5034014;28;20501;-78
2023/09/02 06:47:46;;;;;;;112.37;3.30;;;19.00;57.10;;;;;;5035096;28;20826;-78
2023/09/02 06:50:12;;;;;;;113.10;4.10;;;19.40;55.90;;;;;;5034196;28;20193;-77
2023/09/02 06:52:37;;;;;;;112.27;3.23;;;19.70;53.20;;;;;;5034729;28;20566;-78
2023/09/02 06:55:03;;;;;;;113.07;3.70;;;19.30;53.70;;;;;;5034256;28;20201;-78
2023/09/02 06:57:29;;;;;;;112.90;3.60;;;19.40;53.80;;;;;;5034690;28;20175;-78
2023/09/02 06:59:55;;;;;;;112.27;3.30;;;19.30;55.10;;;;;;5034156;28;20434;-78
2023/09/02 07:02:21;;;;;;;113.10;3.70;;;19.40;54.70;;;;;;5034496;28;20459;-78
2023/09/02 07:04:49;;;;;;;112.57;3.43;;;19.40;54.80;;;;;;5034295;28;20178;-76
2023/09/02 07:07:16;;;;;;;112.90;3.67;;;19.50;53.40;;;;;;5034406;28;20179;-77
2023/09/02 07:09:41;;;;;;;112.63;3.53;;;19.40;55.90;;;;;;5034392;28;20495;-78
2023/09/02 07:12:07;;;;;;;112.50;3.53;;;19.50;55.00;;;;;;5035299;28;20413;-78
2023/09/02 07:14:32;;;;;;;112.57;3.57;;;19.60;54.30;;;;;;5034154;28;20232;-77
2023/09/02 07:16:58;;;;;;;112.70;3.50;;;19.30;57.30;;;;;;5034205;28;20171;-78
2023/09/02 07:19:24;;;;;;;112.40;3.50;;;19.90;54.20;;;;;;5034814;28;20595;-77
2023/09/02 07:21:50;;;;;;;112.47;3.30;;;20.20;52.90;;;;;;5033760;28;20211;-77
2023/09/02 07:24:16;;;;;;;112.30;3.20;;;20.20;53.00;;;;;;5035761;28;20182;-78
2023/09/02 07:26:41;;;;;;;112.30;3.60;;;20.20;53.50;;;;;;5037456;28;20171;-77
2023/09/02 07:29:07;;;;;;;112.77;3.27;;;20.70;51.50;;;;;;5037844;28;20255;-77
2023/09/02 07:31:32;;;;;;;112.70;3.30;;;20.70;52.10;;;;;;5038908;28;20261;-78
2023/09/02 07:33:58;;;;;;;112.00;3.17;;;21.10;50.10;;;;;;5038586;28;20538;-78
2023/09/02 07:36:24;;;;;;;113.30;4.07;;;21.20;48.60;;;;;;5037911;28;20172;-78
2023/09/02 07:38:50;;;;;;;112.10;3.27;;;21.10;49.70;;;;;;5038552;28;20208;-78
2023/09/02 07:41:15;;;;;;;112.97;3.60;;;21.30;49.60;;;;;;5037755;28;20201;-78
2023/09/02 07:43:41;;;;;;;112.27;3.47;;;20.90;50.70;;;;;;5037983;28;20544;-78
2023/09/02 07:46:06;;;;;;;112.47;3.37;;;20.70;51.90;;;;;;5034242;28;20198;-79
2023/09/02 07:48:32;;;;;;;111.67;2.87;;;21.10;51.20;;;;;;5037525;28;20227;-79
2023/09/02 07:51:00;;;;;;;111.67;3.07;;;21.30;49.70;;;;;;5037653;28;20210;-78
2023/09/02 07:53:25;;;;;;;113.20;3.17;;;21.50;49.40;;;;;;5037716;28;20177;-79
2023/09/02 07:55:51;;;;;;;112.03;3.33;;;22.10;48.20;;;;;;5037204;28;20887;-78
2023/09/02 07:58:17;;;;;;;111.97;3.37;;;22.50;45.90;;;;;;5037846;28;20183;-78
2023/09/02 08:00:42;;;;;;;114.27;3.30;;;22.50;46.00;;;;;;5038453;28;20193;-78
2023/09/02 08:03:08;;;;;;;111.77;3.30;;;22.30;46.60;;;;;;5038634;28;20205;-77
2023/09/02 08:05:38;;;;;;;111.67;3.20;;;22.20;46.90;;;;;;5037719;28;20244;-78
2023/09/02 08:08:05;;;;;;;111.90;3.30;;;21.90;49.60;;;;;;5037403;28;20235;-78
2023/09/02 08:10:30;;;;;;;112.17;3.40;;;21.40;50.10;;;;;;5037227;28;20947;-77
2023/09/02 08:12:56;;;;;;;112.87;3.40;;;21.40;50.40;;;;;;5038875;28;20453;-78
2023/09/02 08:15:22;;;;;;;112.20;3.20;;;22.10;49.60;;;;;;5037947;28;20188;-78
2023/09/02 08:17:47;;;;;;;111.57;3.20;;;22.30;48.00;;;;;;5038627;28;20174;-78
2023/09/02 08:20:14;;;;;;;111.20;2.80;;;22.70;46.80;;;;;;5038075;28;20224;-78
2023/09/02 08:22:42;;;;;;;111.90;3.10;;;23.00;45.60;;;;;;5037542;28;20194;-78
2023/09/02 08:25:09;;;;;;;111.53;3.23;;;22.70;45.20;;;;;;5037383;28;20416;-78
2023/09/02 08:27:34;;;;;;;112.27;3.80;;;22.60;47.40;;;;;;5037757;28;20405;-77
2023/09/02 08:30:00;;;;;;;111.40;3.30;;;22.40;47.00;;;;;;5053322;23;20559;-70
2023/09/02 08:32:29;;;;;;;112.00;3.67;;;22.60;47.30;;;;;;5051617;28;20579;-70
2023/09/02 08:34:56;;;;;;;112.07;3.43;;;22.40;47.60;;;;;;5052951;28;20269;-70
2023/09/02 08:37:22;;;;;;;111.20;2.70;;;22.40;47.80;;;;;;5053488;28;20801;-70
2023/09/02 08:39:47;;;;;;;112.07;3.50;;;22.50;47.80;;;;;;5053298;28;20437;-70
2023/09/02 08:42:17;;;;;;;111.47;3.23;;;23.00;46.30;;;;;;5053309;28;20258;-70
2023/09/02 08:44:45;;;;;;;111.37;3.30;;;22.80;47.70;;;;;;5053320;28;20175;-70
2023/09/02 08:47:11;;;;;;;111.30;3.13;;;22.50;49.10;;;;;;5054006;28;20460;-72
2023/09/02 08:49:38;;;;;;;111.13;3.10;;;22.60;48.20;;;;;;5053433;28;20850;-71
2023/09/02 08:52:07;;;;;;;111.17;3.10;;;22.90;47.40;;;;;;5053182;28;20412;-71
2023/09/02 08:54:34;;;;;;;111.03;3.10;;;22.50;48.00;;;;;;5052872;28;20417;-71
2023/09/02 08:57:01;;;;;;;111.00;3.20;;;22.40;49.50;;;;;;5053285;28;20414;-71
2023/09/02 08:59:28;;;;;;;110.73;2.90;;;22.50;48.60;;;;;;5052817;28;20568;-70
2023/09/02 09:01:56;;;;;;;111.43;3.53;;;23.00;47.10;;;;;;5052967;28;20469;-71
2023/09/02 09:04:22;;;;;;;111.20;3.30;;;23.00;47.30;;;;;;5053596;28;20406;-71
2023/09/02 09:06:48;;;;;;;111.77;3.37;;;22.90;46.50;;;;;;5052693;28;20490;-71
2023/09/02 09:09:17;;;;;;;111.07;3.30;;;22.50;48.80;;;;;;5052838;28;20409;-71
2023/09/02 09:11:43;;;;;;;112.00;3.60;;;22.80;48.30;;;;;;5052951;28;20413;-71
2023/09/02 09:14:17;;;;;;;111.00;3.50;;;23.30;46.60;;;;;;5052927;28;20504;-71
2023/09/02 09:16:43;;;;;;;110.83;3.37;;;23.80;45.20;;;;;;5052754;28;20968;-71
2023/09/02 09:19:09;;;;;;;110.67;3.10;;;23.90;45.20;;;;;;5053143;28;21018;-71
2023/09/02 09:21:35;;;;;;;110.90;3.33;;;23.90;45.30;;;;;;5051305;28;20466;-71
2023/09/02 09:24:02;;;;;;;110.87;3.20;;;24.10;43.90;;;;;;5052777;28;20547;-71
2023/09/02 09:26:30;;;;;;;110.17;2.80;;;23.90;45.40;;;;;;5051285;28;20179;-71
2023/09/02 09:28:56;;;;;;;110.80;3.37;;;24.00;45.40;;;;;;5052617;28;20412;-71
2023/09/02 09:31:23;;;;;;;110.77;3.20;;;23.90;45.30;;;;;;5052516;28;20513;-71
2023/09/02 09:33:54;;;;;;;110.37;2.83;;;24.20;44.50;;;;;;5052258;28;20435;-71
2023/09/02 09:36:23;;;;;;;110.77;3.30;;;25.00;44.60;;;;;;5052182;28;20406;-71
2023/09/02 09:38:53;;;;;;;111.17;3.37;;;25.30;41.50;;;;;;5052270;28;20437;-71
2023/09/02 09:41:19;;;;;;;110.20;3.00;;;25.20;42.10;;;;;;5052172;28;20490;-72
2023/09/02 09:44:01;;;;;;;109.90;2.83;;;24.90;42.70;;;;;;5052296;28;20949;-71
2023/09/02 09:46:27;;;;;;;110.37;3.00;;;25.50;42.90;;;;;;5051096;28;20996;-71
2023/09/02 09:49:00;;;;;;;110.27;3.33;;;25.80;40.00;;;;;;5052197;28;20497;-71
2023/09/02 09:51:27;;;;;;;110.70;3.07;;;25.80;38.90;;;;;;5050702;28;20175;-70
2023/09/02 09:53:52;;;;;;;110.27;3.33;;;25.50;40.80;;;;;;5052191;28;20410;-71
2023/09/02 09:56:18;;;;;;;110.07;3.00;;;25.90;40.60;;;;;;5051607;28;20563;-71
2023/09/02 09:58:45;;;;;;;110.27;3.13;;;25.90;38.50;;;;;;5052095;28;20238;-71
2023/09/02 10:01:19;;;;;;;109.87;2.93;;;26.10;39.00;;;;;;5051679;28;20461;-71
2023/09/02 10:03:44;;;;;;;112.50;2.90;;;26.30;39.10;;;;;;5051717;28;20402;-70
2023/09/02 10:06:10;;;;;;;109.87;3.17;;;26.70;38.00;;;;;;5051446;28;20552;-71
2023/09/02 10:08:49;;;;;;;109.83;3.20;;;27.00;37.20;;;;;;5051840;28;20210;-71
2023/09/02 10:11:21;;;;;;;109.07;2.63;;;27.10;34.30;;;;;;5051535;28;20187;-71
2023/09/02 10:13:48;;;;;;;109.50;3.30;;;26.70;35.60;;;;;;5050473;28;20414;-71
2023/09/02 10:16:15;;;;;;;108.90;2.70;;;26.90;34.50;;;;;;5051285;28;20508;-71
2023/09/02 10:18:42;;;;;;;109.07;2.90;;;26.60;34.70;;;;;;5051715;28;20790;-71
2023/09/02 10:21:09;;;;;;;109.10;3.27;;;27.10;34.10;;;;;;5051333;28;20424;-71
2023/09/02 10:23:36;;;;;;;109.13;2.90;;;27.30;32.60;;;;;;5051521;28;20497;-70
2023/09/02 10:26:08;;;;;;;109.90;3.17;;;26.20;35.50;;;;;;5051191;28;20878;-71
2023/09/02 10:28:40;;;;;;;108.90;3.10;;;26.20;36.70;;;;;;5051659;28;20756;-71
2023/09/02 10:31:30;;;;;;;108.47;2.70;;;26.40;34.90;;;;;;5051452;28;20536;-71
2023/09/02 10:34:21;;;;;;;108.13;2.70;;;27.10;35.40;;;;;;5051637;28;20429;-71
2023/09/02 10:36:56;;;;;;;110.00;3.27;;;27.70;34.50;;;;;;5051032;28;20410;-71
2023/09/02 10:39:38;;;;;;;107.97;2.77;;;26.90;30.60;;;;;;5033648;28;20436;-71
2023/09/02 10:42:04;;;;;;;108.00;2.77;;;26.50;30.40;;;;;;5051171;28;20449;-70
2023/09/02 10:44:30;;;;;;;107.57;2.63;;;27.00;31.40;;;;;;5051230;28;20889;-71
2023/09/02 10:46:56;;;;;;;107.67;2.80;;;27.90;29.40;;;;;;5051043;28;20250;-71
2023/09/02 10:49:23;;;;;;;107.50;2.80;;;27.90;28.50;;;;;;5051243;28;20418;-71
2023/09/02 10:51:49;;;;;;;107.27;2.53;;;28.20;28.40;;;;;;5051234;28;20172;-71
2023/09/02 10:54:15;;;;;;;107.17;2.50;;;27.80;29.50;;;;;;5051288;28;20402;-71
2023/09/02 10:56:41;;;;;;;107.60;2.83;;;28.20;29.70;;;;;;5050818;28;20897;-71
2023/09/02 10:59:07;;;;;;;107.17;2.67;;;28.00;27.40;;;;;;5054457;28;20203;-71
2023/09/02 11:01:47;;;;;;;107.03;2.70;;;28.10;28.20;;;;;;5054906;28;20260;-71
2023/09/02 11:04:16;;;;;;;106.10;2.37;;;27.90;29.00;;;;;;5055573;28;20413;-71
2023/09/02 11:07:19;;;;;;;106.77;2.90;;;27.60;28.60;;;;;;5054855;28;20481;-71
2023/09/02 11:09:50;;;;;;;106.67;2.70;;;27.30;28.60;;;;;;5055068;28;20428;-71
2023/09/02 11:12:15;;;;;;;108.90;3.63;;;27.80;28.80;;;;;;5054873;28;20394;-71
2023/09/02 11:14:41;;;;;;;105.90;2.60;;;28.80;26.90;;;;;;5054973;28;20891;-71
2023/09/02 11:17:26;;;;;;;106.07;2.77;;;29.50;25.50;;;;;;5055227;28;20189;-71
2023/09/02 11:20:09;;;;;;;106.07;2.70;;;29.80;25.30;;;;;;5055060;28;20192;-71
2023/09/02 11:22:59;;;;;;;106.53;2.50;;;29.60;25.30;;;;;;5054594;28;20455;-72
2023/09/02 11:25:38;;;;;;;105.63;2.77;;;28.80;26.50;;;;;;5054643;28;20840;-71
2023/09/02 11:28:03;;;;;;;105.13;2.30;;;28.10;26.70;;;;;;5054753;28;20913;-71
2023/09/02 11:30:30;;;;;;;105.50;2.70;;;27.90;26.40;;;;;;5054544;28;20492;-71
2023/09/02 11:32:57;;;;;;;105.10;2.50;;;27.80;27.10;;;;;;5054536;28;20172;-72
2023/09/02 11:35:28;;;;;;;105.20;2.33;;;28.30;25.30;;;;;;5054500;28;20398;-71
2023/09/02 11:37:54;;;;;;;104.90;2.50;;;28.80;24.00;;;;;;5054468;28;20411;-71
2023/09/02 11:40:22;;;;;;;104.87;2.30;;;29.40;22.90;;;;;;5051953;28;20457;-71
2023/09/02 11:42:54;;;;;;;105.10;2.50;;;29.70;23.50;;;;;;5047104;28;20218;-71
2023/09/02 11:45:20;;;;;;;105.07;2.40;;;30.60;23.30;;;;;;5054345;28;20877;-72
2023/09/02 11:47:50;;;;;;;105.43;2.40;;;32.40;23.60;;;;;;5054330;28;20426;-72
2023/09/02 11:50:19;;;;;;;104.37;2.20;;;30.40;24.80;;;;;;5054450;28;20802;-72
2023/09/02 11:52:46;;;;;;;104.50;2.37;;;31.40;25.50;;;;;;5054105;28;20497;-72
2023/09/02 11:55:16;;;;;;;104.77;2.20;;;32.10;23.20;;;;;;5054096;28;20909;-72
2023/09/02 11:57:42;;;;;;;104.27;2.10;;;32.40;21.10;;;;;;5052179;28;20486;-71
2023/09/02 12:00:13;;;;;;;103.80;2.10;;;32.20;20.40;;;;;;5053297;28;20434;-72
2023/09/02 12:02:39;;;;;;;103.57;2.07;;;31.10;19.10;;;;;;5040272;28;20462;-72
2023/09/02 12:05:04;;;;;;;103.47;2.00;;;30.90;22.80;;;;;;5053865;28;20404;-72
2023/09/02 12:07:35;;;;;;;103.23;2.07;;;31.70;19.90;;;;;;5053940;28;20514;-71
2023/09/02 12:10:09;;;;;;;103.00;2.10;;;31.30;19.90;;;;;;5053192;28;20188;-71
2023/09/02 12:12:40;;;;;;;104.67;2.53;;;29.90;20.50;;;;;;5053938;28;20803;-71
2023/09/02 12:15:06;;;;;;;103.33;2.17;;;28.90;21.50;;;;;;5053667;28;20414;-72
2023/09/02 12:17:31;;;;;;;103.40;2.30;;;29.30;22.70;;;;;;5053930;28;20632;-72
2023/09/02 12:19:58;;;;;;;103.23;2.23;;;30.40;21.10;;;;;;5053683;28;20440;-72
2023/09/02 12:22:24;;;;;;;103.47;2.37;;;31.00;20.20;;;;;;5053957;28;20462;-72
2023/09/02 12:24:50;;;;;;;102.77;2.00;;;32.00;21.60;;;;;;5053728;28;20411;-72
2023/09/02 12:27:16;;;;;;;102.93;2.20;;;32.40;20.80;;;;;;5053813;28;20504;-72
2023/09/02 12:29:53;;;;;;;106.50;3.60;;;31.60;17.90;;;;;;5053321;28;20196;-71